Terminal Aerodrome Forecast
Issued by NWS

Home | Current Version | Previous Version | Text Only | Print | Product List | Glossary On
Versions: 1 2 3 4 5 6 7 8 9 10 11 12 13 14 15 16 17 18
435
FTAK31 PAJN 230539
TAFAWG
TAF
PAWG 230539Z 2306/2406 11005KT P6SM VCSH SCT015 BKN025
      TEMPO 2306/2310 P6SM SCT025 BKN035
     FM231400 11008KT 4SM -SHRA BR BKN025 OVC035 WS020/14025KT
     FM231700 11010G18KT P6SM -SHRA OVC050
      AMD LTD TO CLD VIS AND WIND 2306/2315=

USA.gov is the U.S. government's official web portal to all federal, state and local government web resources and services.